Time;durP1;ratioP1;P1;durP2;ratioP2;P2;SDS_P1;SDS_P2;PMS_P1;PMS_P2;Temp;Humidity;BMP_temperature;BMP_pressure;BME280_temperature;BME280_humidity;BME280_pressure;Samples;Min_cycle;Max_cycle;Signal;HPM_P1;HPM_P2
2021/09/01 00:00:56;;;;;;;8.83;3.83;;;;;;;16.91;65.74;100039.05;1615881;86;21119;-57
2021/09/01 00:03:23;;;;;;;6.33;3.65;;;;;;;16.87;65.73;100041.23;1628552;86;21089;-57
2021/09/01 00:05:49;;;;;;;7.05;3.92;;;;;;;16.86;65.69;100044.91;1634782;85;23358;-57
2021/09/01 00:08:16;;;;;;;10.35;4.37;;;;;;;16.88;65.57;100047.39;1627284;86;21096;-57
2021/09/01 00:10:43;;;;;;;6.53;3.08;;;;;;;16.94;65.27;100047.19;1640219;85;21104;-57
2021/09/01 00:13:09;;;;;;;7.80;3.90;;;;;;;16.97;65.20;100046.34;1621899;86;21099;-57
2021/09/01 00:15:37;;;;;;;7.72;3.95;;;;;;;17.00;65.02;100048.66;1639560;85;21092;-57
2021/09/01 00:18:04;;;;;;;7.03;4.28;;;;;;;16.98;64.97;100045.83;1641158;85;21113;-57
2021/09/01 00:20:30;;;;;;;7.10;4.15;;;;;;;16.93;65.04;100049.51;1641521;85;21068;-57
2021/09/01 00:22:57;;;;;;;12.07;4.00;;;;;;;16.86;65.37;100044.91;1622806;86;21138;-57
2021/09/01 00:25:23;;;;;;;10.60;3.95;;;;;;;16.84;65.54;100038.06;1617822;87;21129;-57
2021/09/01 00:27:51;;;;;;;7.08;3.75;;;;;;;16.79;65.61;100041.22;1619748;87;21079;-57
2021/09/01 00:30:18;;;;;;;9.00;4.45;;;;;;;16.75;65.61;100037.77;1637617;85;21414;-57
2021/09/01 00:39:44;;;;;;;6.58;3.72;;;;;;;16.77;65.33;100039.75;1647004;85;21059;-58
2021/09/01 00:42:11;;;;;;;7.17;4.00;;;;;;;16.72;65.39;100034.95;1640990;85;21085;-57
2021/09/01 00:44:37;;;;;;;5.50;3.05;;;;;;;16.69;65.43;100032.63;1642578;86;21114;-57
2021/09/01 00:47:06;;;;;;;6.90;3.62;;;;;;;16.66;65.38;100028.98;1634337;85;21065;-58
2021/09/01 00:49:32;;;;;;;8.03;3.55;;;;;;;16.62;65.38;100018.38;1614344;87;21134;-57
2021/09/01 00:52:00;;;;;;;7.05;3.87;;;;;;;16.60;65.31;100021.20;1616954;87;21507;-57
2021/09/01 00:54:30;;;;;;;6.37;3.77;;;;;;;16.60;65.27;100017.73;1613818;87;21145;-58
2021/09/01 00:57:00;;;;;;;5.90;3.30;;;;;;;16.57;65.17;100016.73;1589001;87;21133;-57
2021/09/01 00:59:27;;;;;;;6.70;3.62;;;;;;;16.54;65.20;100024.53;1615898;87;21615;-57
2021/09/01 01:01:54;;;;;;;6.25;3.25;;;;;;;16.55;65.52;100019.56;1613317;87;21132;-57
2021/09/01 01:04:25;;;;;;;6.15;4.00;;;;;;;16.57;65.85;100032.67;1597006;88;21094;-58
2021/09/01 01:06:57;;;;;;;8.00;4.42;;;;;;;16.50;66.23;100033.34;1597499;88;21106;-57
2021/09/01 01:09:23;;;;;;;7.50;3.58;;;;;;;16.39;66.46;100021.78;1630490;85;21131;-57
2021/09/01 01:12:11;;;;;;;8.73;3.85;;;;;;;16.31;66.53;100027.92;1627388;85;21655;-58
2021/09/01 01:14:43;;;;;;;8.38;3.80;;;;;;;16.25;66.48;100031.75;1625904;86;21598;-57
2021/09/01 01:17:11;;;;;;;7.33;4.25;;;;;;;16.15;66.24;100027.94;1623704;85;21486;-58
2021/09/01 01:19:46;;;;;;;8.23;3.60;;;;;;;16.06;66.25;100029.78;1624045;86;21182;-57
2021/09/01 01:22:15;;;;;;;7.45;3.60;;;;;;;16.00;66.23;100023.80;1658565;85;21100;-58
2021/09/01 01:25:00;;;;;;;8.03;3.47;;;;;;;16.01;66.16;100028.13;1653729;85;21108;-58
2021/09/01 01:27:34;;;;;;;9.60;4.35;;;;;;;16.01;66.29;100021.49;1657325;85;21099;-57
2021/09/01 01:30:19;;;;;;;7.72;3.67;;;;;;;16.01;66.44;100018.84;1651098;85;21139;-57
2021/09/01 01:32:50;;;;;;;8.25;4.17;;;;;;;15.99;66.51;100024.81;1629494;85;21140;-58
2021/09/01 01:35:37;;;;;;;7.75;3.77;;;;;;;15.95;66.53;100014.19;1656761;85;21509;-58
2021/09/01 01:38:06;;;;;;;8.13;4.28;;;;;;;15.91;66.58;100012.88;1629080;85;21104;-58
2021/09/01 01:40:33;;;;;;;13.03;3.77;;;;;;;15.89;66.62;100014.88;1625316;86;21159;-58
2021/09/01 01:43:00;;;;;;;8.95;4.50;;;;;;;15.85;66.74;100008.22;1631187;85;21162;-57
2021/09/01 01:45:36;;;;;;;6.83;3.60;;;;;;;15.85;66.71;100004.25;1629505;85;21175;-58
2021/09/01 01:48:03;;;;;;;7.35;4.55;;;;;;;15.93;66.61;100005.06;1654514;85;21191;-57
2021/09/01 01:50:30;;;;;;;8.00;3.87;;;;;;;16.00;66.27;99990.62;1653727;85;21093;-57
2021/09/01 01:52:57;;;;;;;8.20;3.90;;;;;;;16.02;66.24;99993.97;1652478;85;21137;-57
2021/09/01 01:55:23;;;;;;;8.58;4.28;;;;;;;16.02;66.13;99985.16;1649961;85;21152;-57
2021/09/01 01:57:50;;;;;;;8.38;4.05;;;;;;;15.98;66.25;99987.33;1659085;85;21108;-57
2021/09/01 02:00:16;;;;;;;8.75;4.30;;;;;;;15.97;66.28;99985.17;1649800;85;21049;-57
2021/09/01 02:02:43;;;;;;;7.58;4.05;;;;;;;15.94;66.30;99978.87;1654523;85;21116;-57
2021/09/01 02:05:10;;;;;;;6.58;3.87;;;;;;;15.91;66.47;99976.55;1658323;85;21104;-58
2021/09/01 02:07:38;;;;;;;10.00;6.65;;;;;;;15.88;66.50;99969.43;1658922;84;21138;-57
2021/09/01 02:10:07;;;;;;;13.95;7.90;;;;;;;15.87;66.54;99956.67;1636283;86;21119;-57
2021/09/01 02:12:33;;;;;;;17.25;12.40;;;;;;;15.92;66.53;99958.80;1614953;87;21137;-57
2021/09/01 02:15:02;;;;;;;13.70;10.25;;;;;;;15.97;66.58;99958.64;1610366;87;21150;-57
2021/09/01 02:17:29;;;;;;;14.13;9.18;;;;;;;16.00;66.53;99960.11;1610420;87;21102;-58
2021/09/01 02:19:56;;;;;;;12.53;9.33;;;;;;;16.00;66.32;99954.80;1613161;87;21185;-58
2021/09/01 02:22:22;;;;;;;11.08;6.15;;;;;;;15.98;66.32;99942.21;1610264;87;21086;-58
2021/09/01 02:24:48;;;;;;;10.08;5.17;;;;;;;15.98;66.17;99941.70;1612533;87;21128;-57
2021/09/01 02:27:15;;;;;;;9.03;4.42;;;;;;;15.96;66.11;99947.69;1615389;87;21090;-57
2021/09/01 02:29:41;;;;;;;8.45;4.85;;;;;;;15.92;66.31;99955.66;1616573;87;21580;-58
2021/09/01 02:32:08;;;;;;;10.28;6.50;;;;;;;15.87;66.52;99971.73;1613040;87;21149;-58
2021/09/01 02:34:34;;;;;;;10.23;7.33;;;;;;;15.83;67.06;99981.86;1591346;87;21624;-58
2021/09/01 02:37:01;;;;;;;10.98;6.75;;;;;;;15.83;67.43;99979.20;1613665;87;21146;-58
2021/09/01 02:39:27;;;;;;;9.40;5.97;;;;;;;15.84;67.55;99970.27;1617637;87;21162;-57
2021/09/01 02:41:53;;;;;;;9.38;5.65;;;;;;;15.86;67.45;99976.73;1618148;87;21040;-57
2021/09/01 02:44:20;;;;;;;8.33;5.80;;;;;;;15.82;67.44;99985.53;1618336;87;21154;-58
2021/09/01 02:46:46;;;;;;;9.70;5.58;;;;;;;15.76;67.40;99980.38;1612188;87;21128;-57
2021/09/01 02:49:13;;;;;;;7.87;5.12;;;;;;;15.68;67.19;99979.52;1615622;87;21454;-58
2021/09/01 02:51:39;;;;;;;9.90;5.15;;;;;;;15.62;67.19;99975.72;1612329;87;21093;-58
2021/09/01 02:54:06;;;;;;;8.13;4.92;;;;;;;15.60;67.18;99975.03;1615432;87;21105;-58
2021/09/01 02:56:32;;;;;;;8.98;4.75;;;;;;;15.59;67.14;99973.39;1589596;87;21161;-58
2021/09/01 02:58:59;;;;;;;9.15;4.55;;;;;;;15.65;67.16;99972.73;1612221;87;21505;-57
2021/09/01 03:01:26;;;;;;;8.88;5.37;;;;;;;15.70;67.03;99967.77;1608936;87;21244;-57
2021/09/01 03:03:53;;;;;;;7.60;5.00;;;;;;;15.73;66.82;99966.08;1610010;87;21493;-57
2021/09/01 03:06:20;;;;;;;9.85;5.12;;;;;;;15.73;66.96;99968.73;1608352;87;21098;-58
2021/09/01 03:08:46;;;;;;;7.85;4.95;;;;;;;15.71;66.92;99969.40;1603525;88;21542;-58
2021/09/01 03:11:13;;;;;;;8.85;5.05;;;;;;;15.72;66.81;99968.41;1584771;88;21175;-58
2021/09/01 03:13:42;;;;;;;9.30;4.47;;;;;;;15.72;66.74;99968.41;1558166;90;21065;-58
2021/09/01 03:16:10;;;;;;;7.67;4.15;;;;;;;15.70;66.67;99966.44;1619548;87;21715;-58
2021/09/01 03:18:36;;;;;;;8.55;4.90;;;;;;;15.68;66.66;99960.44;1616836;87;21051;-72
2021/09/01 03:21:03;;;;;;;6.35;4.03;;;;;;;15.71;66.56;99953.99;1591723;88;21106;-58
2021/09/01 03:23:29;;;;;;;9.15;4.67;;;;;;;15.76;66.55;99960.47;1606861;87;22259;-58
2021/09/01 03:25:57;;;;;;;10.35;4.72;;;;;;;15.79;66.61;99955.34;1603608;87;22189;-58
2021/09/01 03:28:24;;;;;;;8.80;5.12;;;;;;;15.83;66.74;99962.47;1586221;88;21193;-57
2021/09/01 03:30:50;;;;;;;6.67;4.20;;;;;;;15.83;66.85;99962.47;1586882;88;21729;-58
2021/09/01 03:33:17;;;;;;;7.33;4.20;;;;;;;15.79;66.76;99958.00;1614066;87;21625;-58
2021/09/01 03:35:44;;;;;;;7.37;4.15;;;;;;;15.73;66.49;99948.84;1573999;90;21157;-70
2021/09/01 03:38:10;;;;;;;6.90;4.33;;;;;;;15.71;66.50;99948.18;1597851;87;22423;-70
2021/09/01 03:40:37;;;;;;;8.13;4.75;;;;;;;15.68;66.47;99955.14;1587077;88;21114;-69
2021/09/01 03:43:04;;;;;;;10.58;4.75;;;;;;;15.65;66.60;99947.54;1560841;88;21110;-69
2021/09/01 03:45:31;;;;;;;7.60;4.87;;;;;;;15.72;66.62;99954.33;1561937;90;21189;-72
2021/09/01 03:47:57;;;;;;;7.17;4.40;;;;;;;15.81;66.61;99949.38;1562437;90;21094;-72
2021/09/01 03:50:24;;;;;;;8.43;5.00;;;;;;;15.91;66.50;99938.59;1535573;90;21246;-57
2021/09/01 03:52:50;;;;;;;8.28;4.40;;;;;;;15.99;66.49;99946.53;1552953;90;21143;-58
2021/09/01 03:55:17;;;;;;;7.33;4.40;;;;;;;16.03;66.60;99953.66;1603491;87;21114;-57
2021/09/01 03:57:44;;;;;;;7.65;4.60;;;;;;;16.02;66.63;99955.49;1576735;87;21150;-58
2021/09/01 04:00:13;;;;;;;8.75;4.92;;;;;;;16.03;66.67;99954.48;1603795;87;21624;-58
2021/09/01 04:02:40;;;;;;;8.13;4.83;;;;;;;16.05;66.59;99954.31;1579099;87;21624;-57
2021/09/01 04:05:07;;;;;;;7.87;5.08;;;;;;;16.08;66.71;99955.30;1599799;87;21165;-57
2021/09/01 04:07:34;;;;;;;7.75;4.40;;;;;;;16.11;66.52;99955.79;1601026;87;21126;-57
2021/09/01 04:10:00;;;;;;;7.45;4.28;;;;;;;16.19;66.49;99958.08;1599212;87;21387;-57
2021/09/01 04:12:27;;;;;;;8.45;4.83;;;;;;;16.29;66.52;99958.72;1576204;88;21064;-58
2021/09/01 04:14:55;;;;;;;7.65;4.70;;;;;;;16.35;66.40;99946.09;1580293;88;21256;-58
2021/09/01 04:17:21;;;;;;;9.25;5.67;;;;;;;16.39;66.26;99947.91;1598306;87;21569;-57
2021/09/01 04:19:48;;;;;;;8.73;5.35;;;;;;;16.41;66.04;99946.75;1604251;87;21134;-57
2021/09/01 04:22:14;;;;;;;6.37;4.12;;;;;;;16.43;65.92;99944.75;1602810;87;21071;-57
2021/09/01 04:24:41;;;;;;;6.80;4.42;;;;;;;16.48;65.97;99955.68;1551528;90;21607;-57
2021/09/01 04:27:07;;;;;;;7.75;4.65;;;;;;;16.50;65.89;99954.18;1583698;89;21131;-57
2021/09/01 04:29:35;;;;;;;6.80;4.17;;;;;;;16.54;65.68;99952.83;1584113;88;21093;-57
2021/09/01 04:32:03;;;;;;;8.05;4.75;;;;;;;16.66;65.57;99949.28;1582445;88;21169;-58
2021/09/01 04:34:30;;;;;;;8.25;4.90;;;;;;;16.77;65.40;99950.23;1602538;87;21182;-57
2021/09/01 04:36:56;;;;;;;8.28;5.47;;;;;;;16.87;65.63;99955.37;1571482;89;21603;-58
2021/09/01 04:39:23;;;;;;;7.28;4.85;;;;;;;16.93;65.59;99949.85;1570921;89;21172;-60
2021/09/01 04:41:49;;;;;;;8.55;5.55;;;;;;;16.99;65.17;99953.97;1550934;89;21599;-60
2021/09/01 04:44:16;;;;;;;9.30;5.60;;;;;;;17.00;64.81;99949.50;1575100;89;21133;-59
2021/09/01 04:46:43;;;;;;;10.65;5.33;;;;;;;17.01;64.80;99951.98;1571035;89;21549;-58
2021/09/01 04:49:09;;;;;;;7.53;4.87;;;;;;;17.01;64.63;99949.80;1575311;89;21156;-60
2021/09/01 04:51:35;;;;;;;6.83;4.30;;;;;;;17.02;64.56;99948.81;1581764;89;21625;-60
2021/09/01 04:54:02;;;;;;;8.73;5.05;;;;;;;17.10;64.75;99948.77;1544763;89;21119;-58
2021/09/01 04:56:28;;;;;;;6.10;3.77;;;;;;;17.24;64.77;99950.65;1574144;89;21125;-58
2021/09/01 04:58:56;;;;;;;8.48;4.90;;;;;;;17.34;64.68;99955.74;1571637;89;21109;-58
2021/09/01 05:01:22;;;;;;;8.13;4.05;;;;;;;17.46;64.74;99946.84;1569020;89;21200;-60
2021/09/01 05:03:49;;;;;;;7.55;4.05;;;;;;;17.54;64.56;99946.78;1549967;89;21775;-57
2021/09/01 05:06:16;;;;;;;6.95;3.65;;;;;;;17.61;64.57;99953.54;1583166;86;21118;-55
2021/09/01 05:08:42;;;;;;;6.55;3.98;;;;;;;17.67;64.12;99942.67;1598593;87;21035;-58
2021/09/01 05:11:09;;;;;;;8.65;4.62;;;;;;;17.70;63.27;99938.33;1581278;88;21129;-57
2021/09/01 05:13:37;;;;;;;9.05;4.47;;;;;;;17.71;63.41;99938.66;1600374;87;21575;-57
2021/09/01 05:16:04;;;;;;;7.80;4.17;;;;;;;17.75;63.57;99941.27;1598697;88;21077;-55
2021/09/01 05:18:30;;;;;;;8.65;4.10;;;;;;;17.80;63.64;99937.08;1572611;87;21093;-55
2021/09/01 05:20:59;;;;;;;8.98;3.83;;;;;;;17.90;63.67;99938.67;1579577;87;21713;-57
2021/09/01 05:23:32;;;;;;;7.95;4.65;;;;;;;17.98;63.80;99943.92;1605257;87;21149;-57
2021/09/01 05:26:03;;;;;;;7.25;4.05;;;;;;;18.05;64.09;99940.03;1580909;89;21090;-59
2021/09/01 05:28:32;;;;;;;9.20;5.08;;;;;;;18.09;64.25;99933.31;1579611;87;22268;-57
2021/09/01 05:31:01;;;;;;;7.53;4.58;;;;;;;18.13;63.83;99938.61;1563169;88;21571;-57
2021/09/01 05:33:31;;;;;;;7.87;5.33;;;;;;;18.12;62.77;99935.13;1615534;87;21021;-57
2021/09/01 05:35:58;;;;;;;7.90;4.72;;;;;;;18.11;62.35;99940.63;1573239;89;21108;-57
2021/09/01 05:38:24;;;;;;;8.33;5.15;;;;;;;18.07;62.22;99932.67;1597455;88;20999;-57
2021/09/01 05:40:52;;;;;;;7.65;4.67;;;;;;;18.03;62.05;99936.72;1548735;91;22373;-58
2021/09/01 05:43:20;;;;;;;7.60;4.65;;;;;;;17.98;61.85;99934.09;1601949;87;21038;-58
2021/09/01 05:45:48;;;;;;;9.03;4.87;;;;;;;17.98;61.75;99929.28;1545092;91;21118;-57
2021/09/01 05:48:18;;;;;;;7.33;4.40;;;;;;;18.01;61.66;99925.74;1579090;89;21106;-58
2021/09/01 05:50:45;;;;;;;8.68;4.80;;;;;;;18.08;61.60;99924.51;1540710;91;21168;-67
2021/09/01 05:53:11;;;;;;;6.90;4.35;;;;;;;18.14;61.44;99928.27;1577307;89;21102;-71
2021/09/01 05:55:41;;;;;;;6.50;3.83;;;;;;;18.19;61.39;99927.23;1602323;87;21748;-75
2021/09/01 05:58:10;;;;;;;9.15;4.60;;;;;;;18.23;61.08;99925.03;1601659;87;21135;-68
2021/09/01 06:00:39;;;;;;;7.30;4.47;;;;;;;18.28;61.23;99922.64;1601584;87;21172;-65
2021/09/01 06:03:34;;;;;;;7.37;4.60;;;;;;;18.30;60.69;99920.09;1602836;87;21078;-72
2021/09/01 06:06:02;;;;;;;9.05;4.53;;;;;;;18.32;60.90;99924.73;1602177;87;21073;-60
2021/09/01 06:08:34;;;;;;;7.90;5.47;;;;;;;18.38;60.92;99927.99;1594064;88;21077;-55
2021/09/01 06:11:05;;;;;;;8.55;4.60;;;;;;;18.42;60.83;99935.10;1596839;88;21098;-57
2021/09/01 06:21:59;;;;;;;6.47;3.65;;;;;;;19.00;60.17;99931.22;1798321;78;22497;-69
2021/09/01 06:24:25;;;;;;;6.53;4.37;;;;;;;19.02;59.62;99931.03;1746342;80;21287;-67
2021/09/01 06:26:51;;;;;;;8.88;3.75;;;;;;;19.06;59.58;99939.80;1776032;80;21081;-58
2021/09/01 06:29:18;;;;;;;8.35;3.83;;;;;;;19.14;59.02;99942.02;1777635;80;22766;-57
2021/09/01 06:31:44;;;;;;;9.13;3.95;;;;;;;19.16;58.97;99939.98;1737072;80;21549;-55
2021/09/01 06:34:11;;;;;;;7.60;3.70;;;;;;;19.19;59.38;99952.43;1667340;84;21195;-56
2021/09/01 06:36:42;;;;;;;12.18;4.55;;;;;;;19.22;59.11;99950.72;1647493;84;21928;-55
2021/09/01 06:39:11;;;;;;;10.45;4.53;;;;;;;19.24;58.73;99950.02;1665123;84;21182;-70
2021/09/01 06:41:39;;;;;;;7.37;3.87;;;;;;;19.26;59.35;99948.50;1665792;84;21540;-68
2021/09/01 06:44:06;;;;;;;8.45;3.83;;;;;;;19.30;59.69;99941.78;1624579;86;21181;-69
2021/09/01 06:46:33;;;;;;;6.67;3.80;;;;;;;19.35;59.56;99945.19;1633970;86;21112;-57
2021/09/01 06:49:00;;;;;;;7.60;4.00;;;;;;;19.39;59.75;99935.80;1622075;86;21086;-58
2021/09/01 06:51:27;;;;;;;5.70;3.75;;;;;;;19.47;59.52;99937.83;1601193;87;21258;-69
2021/09/01 06:53:53;;;;;;;6.67;3.75;;;;;;;19.58;59.55;99934.31;1626477;86;21091;-65
2021/09/01 06:56:21;;;;;;;8.05;3.65;;;;;;;19.72;59.60;99944.09;1624157;86;21065;-57
2021/09/01 06:58:47;;;;;;;7.20;3.98;;;;;;;19.82;59.06;99946.44;1622719;86;21268;-58
2021/09/01 07:01:14;;;;;;;8.45;4.00;;;;;;;19.88;58.56;99940.84;1616796;86;21085;-58
2021/09/01 07:03:41;;;;;;;6.95;3.60;;;;;;;19.94;58.29;99948.05;1642675;85;21196;-67
2021/09/01 07:06:07;;;;;;;7.67;3.90;;;;;;;19.94;58.35;99946.72;1621359;86;21584;-57
2021/09/01 07:08:33;;;;;;;7.45;4.03;;;;;;;19.96;58.45;99949.53;1627444;86;21143;-60
2021/09/01 07:11:00;;;;;;;7.33;4.25;;;;;;;20.00;58.07;99941.95;1602889;87;21234;-61
2021/09/01 07:13:26;;;;;;;6.97;4.20;;;;;;;20.04;57.77;99939.22;1603481;87;22351;-62
2021/09/01 07:15:54;;;;;;;8.80;5.47;;;;;;;20.08;57.96;99941.80;1605825;87;21174;-61
2021/09/01 07:18:20;;;;;;;9.28;4.97;;;;;;;20.11;58.04;99938.73;1623085;86;21160;-57
2021/09/01 07:20:47;;;;;;;8.20;5.25;;;;;;;20.16;57.98;99940.83;1598226;87;21162;-63
2021/09/01 07:23:16;;;;;;;7.83;4.67;;;;;;;20.24;58.22;99938.01;1612439;87;21097;-59
2021/09/01 07:25:43;;;;;;;7.97;4.72;;;;;;;20.32;58.22;99935.14;1581956;88;21137;-57
2021/09/01 07:28:09;;;;;;;9.05;4.35;;;;;;;20.50;57.95;99938.63;1583277;88;21196;-57
2021/09/01 07:30:37;;;;;;;6.20;3.87;;;;;;;20.71;57.22;99932.88;1595612;88;21090;-57
2021/09/01 07:33:04;;;;;;;7.45;4.50;;;;;;;20.86;56.77;99935.41;1593650;88;21484;-57
2021/09/01 07:35:30;;;;;;;7.75;4.22;;;;;;;20.94;55.92;99933.89;1611651;87;21109;-67
2021/09/01 07:37:57;;;;;;;6.25;3.67;;;;;;;20.95;56.03;99935.55;1611046;87;21094;-55
2021/09/01 07:40:24;;;;;;;6.22;3.70;;;;;;;20.93;56.09;99931.73;1608905;87;21138;-57
2021/09/01 07:42:52;;;;;;;8.30;4.12;;;;;;;20.96;56.15;99939.36;1611879;88;21122;-57
2021/09/01 07:45:19;;;;;;;7.62;3.77;;;;;;;20.99;55.85;99942.13;1613409;87;21166;-56
2021/09/01 07:47:54;;;;;;;7.35;4.00;;;;;;;20.99;56.16;99935.96;1608273;87;21201;-56
2021/09/01 07:50:25;;;;;;;7.28;3.65;;;;;;;21.04;56.29;99941.53;1611531;87;21615;-57
2021/09/01 07:52:52;;;;;;;8.03;4.37;;;;;;;21.06;56.10;99940.80;1612597;87;21154;-57
2021/09/01 07:55:19;;;;;;;7.03;3.95;;;;;;;21.07;56.05;99931.77;1635281;85;21553;-65
2021/09/01 07:57:45;;;;;;;6.20;3.87;;;;;;;21.07;56.37;99929.91;1633116;86;21148;-66
2021/09/01 08:00:14;;;;;;;8.23;4.03;;;;;;;21.09;55.91;99927.03;1633063;85;21154;-65
2021/09/01 08:02:40;;;;;;;6.67;3.92;;;;;;;21.11;55.13;99927.64;1610981;87;21145;-66
2021/09/01 08:05:08;;;;;;;7.58;3.83;;;;;;;21.12;55.05;99925.30;1612765;87;22796;-67
2021/09/01 08:07:35;;;;;;;6.62;3.85;;;;;;;21.11;54.71;99923.11;1613451;87;21118;-67
2021/09/01 08:10:05;;;;;;;6.62;3.72;;;;;;;21.13;55.03;99923.75;1611355;87;21025;-67
2021/09/01 08:12:31;;;;;;;7.15;3.70;;;;;;;21.17;54.81;99925.50;1610870;87;21094;-67
2021/09/01 08:14:57;;;;;;;8.75;3.45;;;;;;;21.22;54.61;99934.27;1590449;88;21158;-66
2021/09/01 08:17:24;;;;;;;7.55;4.58;;;;;;;21.24;54.59;99929.01;1612171;87;21447;-66
2021/09/01 08:19:50;;;;;;;11.65;4.40;;;;;;;21.27;54.74;99925.92;1632647;86;21192;-64
2021/09/01 08:22:17;;;;;;;7.10;4.28;;;;;;;21.34;55.16;99928.09;1598469;86;21106;-66
2021/09/01 08:24:44;;;;;;;6.60;3.83;;;;;;;21.41;54.79;99923.27;1648563;85;21126;-66
2021/09/01 08:27:11;;;;;;;7.50;3.72;;;;;;;21.46;55.17;99919.45;1620710;86;21220;-65
2021/09/01 08:29:38;;;;;;;10.48;3.30;;;;;;;21.57;55.64;99918.88;1651746;85;23305;-67
2021/09/01 08:32:06;;;;;;;5.58;3.27;;;;;;;21.73;54.75;99918.14;1659980;85;21149;-68
2021/09/01 08:34:32;;;;;;;6.90;3.65;;;;;;;21.82;54.48;99916.39;1653810;85;21173;-70
2021/09/01 08:37:00;;;;;;;6.92;4.08;;;;;;;21.91;54.48;99919.67;1650471;85;21620;-68
2021/09/01 08:39:26;;;;;;;5.60;3.58;;;;;;;21.97;54.02;99920.68;1626796;86;21125;-73
2021/09/01 08:41:54;;;;;;;6.60;4.03;;;;;;;22.03;54.46;99922.00;1649417;85;21218;-72
2021/09/01 08:44:21;;;;;;;5.47;3.42;;;;;;;22.08;54.34;99919.52;1649507;85;21698;-72
2021/09/01 08:46:51;;;;;;;7.05;3.70;;;;;;;22.16;53.66;99918.48;1609941;87;21117;-72
2021/09/01 08:49:19;;;;;;;7.00;4.28;;;;;;;22.17;53.27;99911.26;1593218;88;21780;-72
2021/09/01 08:51:47;;;;;;;5.53;3.52;;;;;;;22.17;52.93;99913.41;1613018;87;21138;-68
2021/09/01 08:54:14;;;;;;;7.90;3.72;;;;;;;22.18;52.81;99903.53;1613913;87;21128;-68
2021/09/01 08:56:41;;;;;;;8.45;3.90;;;;;;;22.14;52.66;99903.14;1610283;87;21163;-72
2021/09/01 08:59:08;;;;;;;7.62;4.20;;;;;;;22.14;52.92;99902.30;1620376;86;21095;-67
2021/09/01 09:01:53;;;;;;;7.80;4.25;;;;;;;22.16;53.52;99899.73;1650735;85;21122;-68
2021/09/01 09:04:29;;;;;;;7.45;3.87;;;;;;;22.21;53.75;99900.44;1655564;85;20958;-73
2021/09/01 09:07:00;;;;;;;7.72;3.25;;;;;;;22.23;53.32;99897.02;1654753;85;21122;-71
2021/09/01 09:09:32;;;;;;;7.87;3.95;;;;;;;22.19;53.34;99900.65;1630262;85;22255;-74
2021/09/01 09:12:00;;;;;;;6.22;4.08;;;;;;;22.14;53.34;99904.48;1647651;85;21124;-73
2021/09/01 09:14:39;;;;;;;8.13;4.30;;;;;;;22.10;53.52;99905.10;1651049;85;21069;-72
2021/09/01 09:17:16;;;;;;;10.60;4.08;;;;;;;22.06;53.38;99909.53;1655562;85;21137;-74
2021/09/01 09:20:09;;;;;;;7.62;4.17;;;;;;;22.02;53.49;99913.68;1654200;85;21142;-73
2021/09/01 09:22:37;;;;;;;7.25;3.67;;;;;;;21.99;53.34;99911.41;1648705;85;21113;-72
2021/09/01 09:25:18;;;;;;;7.30;4.17;;;;;;;22.02;53.57;99908.81;1590328;87;21089;-72
2021/09/01 09:27:48;;;;;;;7.35;4.53;;;;;;;22.03;53.21;99904.59;1640038;85;21164;-72
2021/09/01 09:30:34;;;;;;;8.83;4.65;;;;;;;22.10;52.85;99913.14;1594733;88;21122;-73
2021/09/01 09:33:20;;;;;;;;;;;;;;;22.12;53.34;99905.18;1616377;87;21112;-73
2021/09/01 09:36:02;;;;;;;7.30;4.20;;;;;;;22.18;52.85;99908.38;1595908;87;20176;-72
2021/09/01 09:38:37;;;;;;;6.03;3.58;;;;;;;22.16;52.76;99908.29;1616171;87;21120;-74
2021/09/01 09:41:07;;;;;;;8.80;5.55;;;;;;;22.18;52.92;99908.89;1619845;87;21140;-73
2021/09/01 09:43:34;;;;;;;6.28;4.20;;;;;;;22.18;52.93;99907.55;1620323;87;21113;-74
2021/09/01 09:46:11;;;;;;;7.55;3.60;;;;;;;22.19;53.44;99910.52;1617183;87;21291;-75
2021/09/01 09:48:40;;;;;;;5.37;3.15;;;;;;;22.19;53.57;99909.19;1619933;87;21138;-74
2021/09/01 09:51:14;;;;;;;6.60;3.70;;;;;;;22.22;54.01;99910.11;1600611;87;21118;-69
2021/09/01 09:53:45;;;;;;;7.55;4.35;;;;;;;22.34;54.04;99907.63;1611556;87;21115;-73
2021/09/01 09:56:21;;;;;;;7.30;4.62;;;;;;;22.45;53.75;99907.78;1612977;87;21086;-70
2021/09/01 09:58:51;;;;;;;8.73;4.33;;;;;;;22.53;53.53;99901.90;1613590;87;21111;-75
2021/09/01 10:01:20;;;;;;;8.25;3.72;;;;;;;22.55;53.39;99896.61;1615821;87;21155;-73
2021/09/01 10:03:47;;;;;;;6.80;3.77;;;;;;;22.53;53.53;99899.22;1618084;87;21124;-75
2021/09/01 10:06:17;;;;;;;7.15;3.95;;;;;;;22.52;53.21;99894.35;1616289;87;21098;-74
2021/09/01 10:08:47;;;;;;;8.68;3.98;;;;;;;22.50;53.96;99891.07;1616397;87;21126;-73
2021/09/01 10:11:15;;;;;;;5.92;3.65;;;;;;;22.47;53.48;99889.34;1594126;87;21243;-67
2021/09/01 10:13:45;;;;;;;7.87;4.37;;;;;;;22.45;53.87;99886.34;1618163;87;21566;-68
2021/09/01 10:16:25;;;;;;;6.33;3.50;;;;;;;22.51;53.96;99887.86;1581386;87;21155;-66
2021/09/01 10:19:09;;;;;;;7.05;3.80;;;;;;;22.58;53.42;99888.67;1600248;87;21196;-68
2021/09/01 10:21:42;;;;;;;6.35;3.12;;;;;;;22.61;53.06;99883.70;1637386;85;21565;-68
2021/09/01 10:24:26;;;;;;;5.05;3.30;;;;;;;22.63;51.91;99880.81;1627964;86;21154;-69
2021/09/01 10:27:19;;;;;;;6.03;3.80;;;;;;;22.67;52.95;99877.18;1586784;87;21087;-72
2021/09/01 10:30:04;;;;;;;7.05;3.75;;;;;;;22.66;52.56;99878.20;1646846;85;21017;-72
2021/09/01 10:32:45;;;;;;;6.47;3.37;;;;;;;22.62;53.09;99876.47;1624250;86;21563;-65
2021/09/01 10:35:18;;;;;;;6.92;3.20;;;;;;;22.66;53.18;99879.02;1623662;86;21100;-66
2021/09/01 10:37:55;;;;;;;5.90;3.70;;;;;;;22.70;53.02;99873.55;1619212;86;21515;-72
2021/09/01 10:40:31;;;;;;;6.00;3.37;;;;;;;22.74;52.93;99866.70;1641962;85;21075;-70
2021/09/01 10:43:01;;;;;;;5.42;2.85;;;;;;;22.79;52.67;99864.19;1601366;88;21097;-63
2021/09/01 10:45:37;;;;;;;9.33;4.70;;;;;;;22.86;52.45;99864.15;1626507;86;22566;-66
2021/09/01 10:48:05;;;;;;;7.03;4.12;;;;;;;22.91;51.75;99858.95;1632383;86;21607;-64
2021/09/01 10:50:40;;;;;;;6.85;3.90;;;;;;;22.98;51.74;99867.80;1621519;86;21238;-66
2021/09/01 10:53:25;;;;;;;6.12;3.95;;;;;;;23.03;51.44;99863.11;1625186;86;21372;-71
2021/09/01 10:55:58;;;;;;;5.50;3.30;;;;;;;23.06;51.44;99861.36;1625066;86;21055;-63
2021/09/01 10:58:41;;;;;;;5.70;3.52;;;;;;;23.07;51.71;99861.68;1643167;86;21094;-72
2021/09/01 11:01:23;;;;;;;6.83;3.50;;;;;;;23.09;51.31;99863.62;1623463;86;21146;-73
2021/09/01 11:03:53;;;;;;;7.03;3.47;;;;;;;23.08;50.83;99866.52;1624295;86;21176;-74
2021/09/01 11:06:25;;;;;;;6.55;3.62;;;;;;;23.03;50.99;99866.31;1624974;86;21055;-74
2021/09/01 11:09:05;;;;;;;8.38;4.33;;;;;;;23.00;51.03;99865.72;1623743;86;21050;-74
2021/09/01 11:11:55;;;;;;;5.78;3.58;;;;;;;22.97;51.37;99869.36;1622193;86;21540;-73
2021/09/01 11:14:40;;;;;;;6.45;3.65;;;;;;;22.94;51.59;99863.08;1641455;85;21086;-73
2021/09/01 11:17:11;;;;;;;6.15;3.80;;;;;;;22.94;51.84;99867.92;1623590;86;21134;-74
2021/09/01 11:19:41;;;;;;;5.62;3.35;;;;;;;22.93;51.38;99862.27;1624324;86;21054;-75
2021/09/01 11:22:19;;;;;;;6.95;3.80;;;;;;;22.92;51.58;99852.56;1617346;86;21711;-75
2021/09/01 11:25:12;;;;;;;6.17;3.47;;;;;;;22.90;51.47;99857.33;1624108;86;21110;-74
2021/09/01 11:27:55;;;;;;;5.95;3.60;;;;;;;22.88;51.45;99859.41;1620232;85;21077;-73
2021/09/01 11:30:19;;;;;;;7.85;3.98;;;;;;;22.85;51.69;99853.14;1624075;85;21425;-71
2021/09/01 11:32:45;;;;;;;5.35;3.30;;;;;;;22.79;50.99;99846.75;1651984;85;21090;-71
2021/09/01 11:35:19;;;;;;;6.45;3.85;;;;;;;22.75;51.28;99854.13;1600085;85;21119;-71
2021/09/01 11:37:42;;;;;;;5.25;2.90;;;;;;;22.71;51.47;99845.70;1653511;85;21157;-72
2021/09/01 11:40:11;;;;;;;6.35;3.67;;;;;;;22.68;51.26;99840.77;1579373;88;21149;-71
2021/09/01 11:42:37;;;;;;;5.85;3.67;;;;;;;22.64;51.36;99848.92;1622261;85;21098;-71
2021/09/01 11:45:05;;;;;;;7.20;3.70;;;;;;;22.60;51.50;99844.51;1651401;85;21075;-71
2021/09/01 11:47:31;;;;;;;5.70;3.45;;;;;;;22.58;51.54;99851.95;1651903;85;21572;-71
2021/09/01 11:49:58;;;;;;;6.47;3.20;;;;;;;22.60;52.15;99847.19;1649150;85;21133;-72
2021/09/01 11:52:30;;;;;;;8.85;3.47;;;;;;;22.62;52.11;99841.09;1644220;85;21535;-73
2021/09/01 11:58:22;;;;;;;5.90;3.80;;;;;;;22.73;51.97;99842.28;1647865;85;21023;-74
2021/09/01 12:00:49;;;;;;;9.20;3.40;;;;;;;22.78;51.34;99838.42;1658796;85;21067;-73